sensor_id;sensor_type;location;lat;lon;timestamp;P1;durP1;ratioP1;P2;durP2;ratioP2
34136;SDS011;20414;50.860;4.382;2022-07-15T00:02:09;0.45;;;0.40;;
34136;SDS011;20414;50.860;4.382;2022-07-15T00:04:36;0.47;;;0.40;;
34136;SDS011;20414;50.860;4.382;2022-07-15T00:07:02;0.45;;;0.40;;
34136;SDS011;20414;50.860;4.382;2022-07-15T00:09:29;0.73;;;0.50;;
34136;SDS011;20414;50.860;4.382;2022-07-15T00:12:13;0.73;;;0.40;;
34136;SDS011;20414;50.860;4.382;2022-07-15T00:14:39;0.52;;;0.40;;
34136;SDS011;20414;50.860;4.382;2022-07-15T00:17:06;0.52;;;0.38;;
34136;SDS011;20414;50.860;4.382;2022-07-15T00:19:33;0.50;;;0.50;;
34136;SDS011;20414;50.860;4.382;2022-07-15T00:21:59;0.40;;;0.40;;
34136;SDS011;20414;50.860;4.382;2022-07-15T00:24:25;0.47;;;0.38;;
34136;SDS011;20414;50.860;4.382;2022-07-15T00:26:51;0.75;;;0.40;;
34136;SDS011;20414;50.860;4.382;2022-07-15T00:29:16;0.40;;;0.40;;
34136;SDS011;20414;50.860;4.382;2022-07-15T00:31:42;0.40;;;0.40;;
34136;SDS011;20414;50.860;4.382;2022-07-15T00:34:08;0.60;;;0.50;;
34136;SDS011;20414;50.860;4.382;2022-07-15T00:36:33;0.65;;;0.35;;
34136;SDS011;20414;50.860;4.382;2022-07-15T00:38:59;0.50;;;0.43;;
34136;SDS011;20414;50.860;4.382;2022-07-15T00:41:25;0.40;;;0.40;;
34136;SDS011;20414;50.860;4.382;2022-07-15T00:43:51;0.50;;;0.45;;
34136;SDS011;20414;50.860;4.382;2022-07-15T00:46:19;0.40;;;0.40;;
34136;SDS011;20414;50.860;4.382;2022-07-15T00:48:46;1.10;;;0.40;;
34136;SDS011;20414;50.860;4.382;2022-07-15T00:51:12;0.50;;;0.30;;
34136;SDS011;20414;50.860;4.382;2022-07-15T00:53:38;0.68;;;0.35;;
34136;SDS011;20414;50.860;4.382;2022-07-15T00:56:07;0.40;;;0.40;;
34136;SDS011;20414;50.860;4.382;2022-07-15T00:58:37;0.70;;;0.43;;
34136;SDS011;20414;50.860;4.382;2022-07-15T01:01:07;0.88;;;0.55;;
34136;SDS011;20414;50.860;4.382;2022-07-15T01:03:35;0.95;;;0.45;;
34136;SDS011;20414;50.860;4.382;2022-07-15T01:06:01;0.50;;;0.45;;
34136;SDS011;20414;50.860;4.382;2022-07-15T01:08:28;0.47;;;0.32;;
34136;SDS011;20414;50.860;4.382;2022-07-15T01:10:54;0.88;;;0.60;;
34136;SDS011;20414;50.860;4.382;2022-07-15T01:13:22;0.50;;;0.47;;
34136;SDS011;20414;50.860;4.382;2022-07-15T01:15:49;0.20;;;0.20;;
34136;SDS011;20414;50.860;4.382;2022-07-15T01:18:15;0.30;;;0.30;;
34136;SDS011;20414;50.860;4.382;2022-07-15T01:20:41;0.45;;;0.45;;
34136;SDS011;20414;50.860;4.382;2022-07-15T01:28:58;0.30;;;0.30;;
34136;SDS011;20414;50.860;4.382;2022-07-15T01:31:24;0.80;;;0.43;;
34136;SDS011;20414;50.860;4.382;2022-07-15T01:33:50;0.38;;;0.30;;
34136;SDS011;20414;50.860;4.382;2022-07-15T01:36:21;0.75;;;0.52;;
34136;SDS011;20414;50.860;4.382;2022-07-15T01:38:47;0.40;;;0.30;;
34136;SDS011;20414;50.860;4.382;2022-07-15T01:41:16;0.60;;;0.50;;
34136;SDS011;20414;50.860;4.382;2022-07-15T01:43:42;0.60;;;0.47;;
34136;SDS011;20414;50.860;4.382;2022-07-15T01:46:08;1.08;;;0.50;;
34136;SDS011;20414;50.860;4.382;2022-07-15T01:48:33;2.03;;;0.60;;
34136;SDS011;20414;50.860;4.382;2022-07-15T01:51:20;4.40;;;0.88;;
34136;SDS011;20414;50.860;4.382;2022-07-15T01:53:46;2.10;;;0.60;;
34136;SDS011;20414;50.860;4.382;2022-07-15T01:56:12;2.95;;;0.50;;
34136;SDS011;20414;50.860;4.382;2022-07-15T01:58:38;0.85;;;0.60;;
34136;SDS011;20414;50.860;4.382;2022-07-15T02:01:04;1.42;;;0.45;;
34136;SDS011;20414;50.860;4.382;2022-07-15T02:03:30;2.45;;;0.50;;
34136;SDS011;20414;50.860;4.382;2022-07-15T02:05:56;2.38;;;0.70;;
34136;SDS011;20414;50.860;4.382;2022-07-15T02:08:22;2.92;;;0.60;;
34136;SDS011;20414;50.860;4.382;2022-07-15T02:10:48;3.00;;;0.68;;
34136;SDS011;20414;50.860;4.382;2022-07-15T02:13:14;3.28;;;0.82;;
34136;SDS011;20414;50.860;4.382;2022-07-15T02:15:40;3.63;;;0.70;;
34136;SDS011;20414;50.860;4.382;2022-07-15T02:18:13;3.55;;;1.00;;
34136;SDS011;20414;50.860;4.382;2022-07-15T02:20:38;1.65;;;0.70;;
34136;SDS011;20414;50.860;4.382;2022-07-15T02:23:04;1.60;;;0.65;;
34136;SDS011;20414;50.860;4.382;2022-07-15T02:25:31;1.50;;;0.73;;
34136;SDS011;20414;50.860;4.382;2022-07-15T02:27:59;1.92;;;0.43;;
34136;SDS011;20414;50.860;4.382;2022-07-15T02:30:28;1.13;;;0.50;;
34136;SDS011;20414;50.860;4.382;2022-07-15T02:32:56;0.63;;;0.50;;
34136;SDS011;20414;50.860;4.382;2022-07-15T02:35:21;2.05;;;0.50;;
34136;SDS011;20414;50.860;4.382;2022-07-15T02:37:51;1.20;;;0.50;;
34136;SDS011;20414;50.860;4.382;2022-07-15T02:40:17;0.80;;;0.55;;
34136;SDS011;20414;50.860;4.382;2022-07-15T02:42:50;0.82;;;0.43;;
34136;SDS011;20414;50.860;4.382;2022-07-15T02:45:18;1.08;;;0.57;;
34136;SDS011;20414;50.860;4.382;2022-07-15T02:47:48;0.80;;;0.52;;
34136;SDS011;20414;50.860;4.382;2022-07-15T02:50:14;1.08;;;0.50;;
34136;SDS011;20414;50.860;4.382;2022-07-15T02:52:40;1.23;;;0.47;;
34136;SDS011;20414;50.860;4.382;2022-07-15T02:55:07;2.30;;;0.50;;
34136;SDS011;20414;50.860;4.382;2022-07-15T02:57:34;0.85;;;0.50;;
34136;SDS011;20414;50.860;4.382;2022-07-15T03:00:01;0.82;;;0.50;;
34136;SDS011;20414;50.860;4.382;2022-07-15T03:02:28;2.05;;;0.50;;
34136;SDS011;20414;50.860;4.382;2022-07-15T03:04:55;1.05;;;0.40;;
34136;SDS011;20414;50.860;4.382;2022-07-15T03:07:21;0.50;;;0.40;;
34136;SDS011;20414;50.860;4.382;2022-07-15T03:09:47;0.85;;;0.40;;
34136;SDS011;20414;50.860;4.382;2022-07-15T03:12:13;1.08;;;0.60;;
34136;SDS011;20414;50.860;4.382;2022-07-15T03:14:39;0.95;;;0.40;;
34136;SDS011;20414;50.860;4.382;2022-07-15T03:17:05;1.95;;;0.50;;
34136;SDS011;20414;50.860;4.382;2022-07-15T03:19:31;1.83;;;0.52;;
34136;SDS011;20414;50.860;4.382;2022-07-15T03:21:57;0.60;;;0.47;;
34136;SDS011;20414;50.860;4.382;2022-07-15T03:24:22;0.95;;;0.40;;
34136;SDS011;20414;50.860;4.382;2022-07-15T03:26:48;0.65;;;0.40;;
34136;SDS011;20414;50.860;4.382;2022-07-15T03:29:14;0.90;;;0.60;;
34136;SDS011;20414;50.860;4.382;2022-07-15T03:31:41;0.50;;;0.40;;
34136;SDS011;20414;50.860;4.382;2022-07-15T03:34:07;1.85;;;0.50;;
34136;SDS011;20414;50.860;4.382;2022-07-15T03:36:35;0.90;;;0.47;;
34136;SDS011;20414;50.860;4.382;2022-07-15T03:39:02;0.68;;;0.40;;
34136;SDS011;20414;50.860;4.382;2022-07-15T03:41:32;0.47;;;0.40;;
34136;SDS011;20414;50.860;4.382;2022-07-15T03:43:59;0.57;;;0.45;;
34136;SDS011;20414;50.860;4.382;2022-07-15T03:46:26;0.93;;;0.60;;
34136;SDS011;20414;50.860;4.382;2022-07-15T03:48:55;0.50;;;0.50;;
34136;SDS011;20414;50.860;4.382;2022-07-15T03:51:21;1.48;;;0.40;;
34136;SDS011;20414;50.860;4.382;2022-07-15T03:53:49;0.50;;;0.47;;
34136;SDS011;20414;50.860;4.382;2022-07-15T03:59:00;0.40;;;0.30;;
34136;SDS011;20414;50.860;4.382;2022-07-15T04:01:26;1.63;;;0.60;;
34136;SDS011;20414;50.860;4.382;2022-07-15T04:03:52;0.47;;;0.40;;
34136;SDS011;20414;50.860;4.382;2022-07-15T04:06:19;0.40;;;0.38;;
34136;SDS011;20414;50.860;4.382;2022-07-15T04:08:46;0.63;;;0.40;;
34136;SDS011;20414;50.860;4.382;2022-07-15T04:11:12;0.52;;;0.30;;
34136;SDS011;20414;50.860;4.382;2022-07-15T04:13:38;1.08;;;0.50;;
34136;SDS011;20414;50.860;4.382;2022-07-15T04:16:06;1.58;;;0.40;;
34136;SDS011;20414;50.860;4.382;2022-07-15T04:18:32;0.77;;;0.40;;
34136;SDS011;20414;50.860;4.382;2022-07-15T04:20:58;0.30;;;0.30;;
34136;SDS011;20414;50.860;4.382;2022-07-15T04:23:24;2.10;;;0.60;;
34136;SDS011;20414;50.860;4.382;2022-07-15T04:25:52;0.63;;;0.40;;
34136;SDS011;20414;50.860;4.382;2022-07-15T04:28:19;3.70;;;0.40;;
34136;SDS011;20414;50.860;4.382;2022-07-15T04:30:45;0.60;;;0.40;;
34136;SDS011;20414;50.860;4.382;2022-07-15T04:33:11;0.65;;;0.40;;
34136;SDS011;20414;50.860;4.382;2022-07-15T04:35:39;0.65;;;0.40;;
34136;SDS011;20414;50.860;4.382;2022-07-15T04:38:04;0.32;;;0.32;;
34136;SDS011;20414;50.860;4.382;2022-07-15T04:40:31;0.47;;;0.35;;
34136;SDS011;20414;50.860;4.382;2022-07-15T04:42:57;0.55;;;0.40;;
34136;SDS011;20414;50.860;4.382;2022-07-15T04:45:25;0.50;;;0.40;;
34136;SDS011;20414;50.860;4.382;2022-07-15T04:47:51;0.40;;;0.40;;
34136;SDS011;20414;50.860;4.382;2022-07-15T04:50:17;0.63;;;0.40;;
34136;SDS011;20414;50.860;4.382;2022-07-15T04:53:04;0.40;;;0.40;;
34136;SDS011;20414;50.860;4.382;2022-07-15T04:55:29;0.32;;;0.32;;
34136;SDS011;20414;50.860;4.382;2022-07-15T04:57:55;0.60;;;0.40;;
34136;SDS011;20414;50.860;4.382;2022-07-15T05:00:25;0.52;;;0.50;;
34136;SDS011;20414;50.860;4.382;2022-07-15T05:02:51;0.57;;;0.40;;
34136;SDS011;20414;50.860;4.382;2022-07-15T05:05:17;1.95;;;0.50;;
34136;SDS011;20414;50.860;4.382;2022-07-15T05:07:43;0.55;;;0.35;;
34136;SDS011;20414;50.860;4.382;2022-07-15T05:10:10;0.85;;;0.50;;
34136;SDS011;20414;50.860;4.382;2022-07-15T05:12:36;0.75;;;0.50;;
34136;SDS011;20414;50.860;4.382;2022-07-15T05:15:04;0.75;;;0.50;;
34136;SDS011;20414;50.860;4.382;2022-07-15T05:17:30;0.55;;;0.50;;
34136;SDS011;20414;50.860;4.382;2022-07-15T05:19:56;0.70;;;0.50;;
34136;SDS011;20414;50.860;4.382;2022-07-15T05:22:22;0.50;;;0.40;;
34136;SDS011;20414;50.860;4.382;2022-07-15T05:24:48;0.47;;;0.40;;
34136;SDS011;20414;50.860;4.382;2022-07-15T05:27:14;0.60;;;0.40;;
34136;SDS011;20414;50.860;4.382;2022-07-15T05:29:40;0.60;;;0.40;;
34136;SDS011;20414;50.860;4.382;2022-07-15T05:32:06;0.88;;;0.30;;
34136;SDS011;20414;50.860;4.382;2022-07-15T05:34:33;0.85;;;0.55;;
34136;SDS011;20414;50.860;4.382;2022-07-15T05:36:59;0.40;;;0.40;;
34136;SDS011;20414;50.860;4.382;2022-07-15T05:39:25;0.60;;;0.50;;
34136;SDS011;20414;50.860;4.382;2022-07-15T05:41:53;1.63;;;0.50;;
34136;SDS011;20414;50.860;4.382;2022-07-15T05:44:19;3.35;;;0.50;;
34136;SDS011;20414;50.860;4.382;2022-07-15T05:46:45;0.30;;;0.30;;
34136;SDS011;20414;50.860;4.382;2022-07-15T05:49:11;0.52;;;0.40;;
34136;SDS011;20414;50.860;4.382;2022-07-15T05:51:37;1.08;;;0.50;;
34136;SDS011;20414;50.860;4.382;2022-07-15T05:54:03;0.63;;;0.35;;
34136;SDS011;20414;50.860;4.382;2022-07-15T05:56:29;0.80;;;0.40;;
34136;SDS011;20414;50.860;4.382;2022-07-15T05:58:55;0.30;;;0.30;;
34136;SDS011;20414;50.860;4.382;2022-07-15T06:01:21;0.43;;;0.30;;
34136;SDS011;20414;50.860;4.382;2022-07-15T06:03:48;1.25;;;0.43;;
34136;SDS011;20414;50.860;4.382;2022-07-15T06:06:14;1.20;;;0.40;;
34136;SDS011;20414;50.860;4.382;2022-07-15T06:08:43;0.50;;;0.38;;
34136;SDS011;20414;50.860;4.382;2022-07-15T06:11:09;0.65;;;0.35;;
34136;SDS011;20414;50.860;4.382;2022-07-15T06:13:36;1.38;;;0.40;;
34136;SDS011;20414;50.860;4.382;2022-07-15T06:16:04;1.35;;;0.50;;
34136;SDS011;20414;50.860;4.382;2022-07-15T06:18:31;0.50;;;0.30;;
34136;SDS011;20414;50.860;4.382;2022-07-15T06:20:57;0.90;;;0.40;;
34136;SDS011;20414;50.860;4.382;2022-07-15T06:23:23;0.38;;;0.35;;
34136;SDS011;20414;50.860;4.382;2022-07-15T06:25:50;4.10;;;0.50;;
34136;SDS011;20414;50.860;4.382;2022-07-15T06:28:15;1.27;;;0.40;;
34136;SDS011;20414;50.860;4.382;2022-07-15T06:30:41;0.90;;;0.40;;
34136;SDS011;20414;50.860;4.382;2022-07-15T06:33:07;0.50;;;0.40;;
34136;SDS011;20414;50.860;4.382;2022-07-15T06:35:34;0.68;;;0.45;;
34136;SDS011;20414;50.860;4.382;2022-07-15T06:38:01;0.73;;;0.40;;
34136;SDS011;20414;50.860;4.382;2022-07-15T06:40:27;0.82;;;0.40;;
34136;SDS011;20414;50.860;4.382;2022-07-15T06:42:52;0.63;;;0.52;;
34136;SDS011;20414;50.860;4.382;2022-07-15T06:45:19;0.52;;;0.40;;
34136;SDS011;20414;50.860;4.382;2022-07-15T06:47:45;1.08;;;0.57;;
34136;SDS011;20414;50.860;4.382;2022-07-15T06:50:11;0.70;;;0.40;;
34136;SDS011;20414;50.860;4.382;2022-07-15T06:52:37;2.00;;;0.70;;
34136;SDS011;20414;50.860;4.382;2022-07-15T06:55:03;0.90;;;0.40;;
34136;SDS011;20414;50.860;4.382;2022-07-15T06:57:29;0.98;;;0.40;;
34136;SDS011;20414;50.860;4.382;2022-07-15T06:59:55;0.60;;;0.40;;
34136;SDS011;20414;50.860;4.382;2022-07-15T07:02:21;0.52;;;0.50;;
34136;SDS011;20414;50.860;4.382;2022-07-15T07:04:47;1.13;;;0.52;;
34136;SDS011;20414;50.860;4.382;2022-07-15T07:07:13;1.83;;;0.47;;
34136;SDS011;20414;50.860;4.382;2022-07-15T07:09:39;1.75;;;0.50;;
34136;SDS011;20414;50.860;4.382;2022-07-15T07:12:05;2.05;;;0.45;;
34136;SDS011;20414;50.860;4.382;2022-07-15T07:14:31;1.15;;;0.30;;
34136;SDS011;20414;50.860;4.382;2022-07-15T07:16:57;1.27;;;0.40;;
34136;SDS011;20414;50.860;4.382;2022-07-15T07:19:23;1.10;;;0.60;;
34136;SDS011;20414;50.860;4.382;2022-07-15T07:21:51;0.93;;;0.52;;
34136;SDS011;20414;50.860;4.382;2022-07-15T07:24:16;1.80;;;0.40;;
34136;SDS011;20414;50.860;4.382;2022-07-15T07:26:42;1.05;;;0.38;;
34136;SDS011;20414;50.860;4.382;2022-07-15T07:29:08;1.20;;;0.60;;
34136;SDS011;20414;50.860;4.382;2022-07-15T07:31:40;0.73;;;0.30;;
34136;SDS011;20414;50.860;4.382;2022-07-15T07:34:05;1.52;;;0.40;;
34136;SDS011;20414;50.860;4.382;2022-07-15T07:36:34;1.13;;;0.52;;
34136;SDS011;20414;50.860;4.382;2022-07-15T07:39:00;0.40;;;0.30;;
34136;SDS011;20414;50.860;4.382;2022-07-15T07:41:26;0.50;;;0.40;;
34136;SDS011;20414;50.860;4.382;2022-07-15T07:43:51;0.47;;;0.35;;
34136;SDS011;20414;50.860;4.382;2022-07-15T07:46:17;1.85;;;0.45;;
34136;SDS011;20414;50.860;4.382;2022-07-15T07:48:43;0.50;;;0.30;;
34136;SDS011;20414;50.860;4.382;2022-07-15T07:51:09;1.65;;;0.30;;
34136;SDS011;20414;50.860;4.382;2022-07-15T07:53:34;0.50;;;0.40;;
34136;SDS011;20414;50.860;4.382;2022-07-15T07:56:01;1.73;;;0.40;;
34136;SDS011;20414;50.860;4.382;2022-07-15T07:58:28;1.35;;;0.40;;
34136;SDS011;20414;50.860;4.382;2022-07-15T08:00:56;0.70;;;0.47;;
34136;SDS011;20414;50.860;4.382;2022-07-15T08:03:22;0.98;;;0.30;;
34136;SDS011;20414;50.860;4.382;2022-07-15T08:05:48;1.50;;;0.68;;
34136;SDS011;20414;50.860;4.382;2022-07-15T08:08:15;0.73;;;0.35;;
34136;SDS011;20414;50.860;4.382;2022-07-15T08:10:44;0.70;;;0.50;;
34136;SDS011;20414;50.860;4.382;2022-07-15T08:13:11;0.65;;;0.38;;
34136;SDS011;20414;50.860;4.382;2022-07-15T08:15:38;0.95;;;0.47;;
34136;SDS011;20414;50.860;4.382;2022-07-15T08:18:04;0.77;;;0.40;;
34136;SDS011;20414;50.860;4.382;2022-07-15T08:20:30;0.82;;;0.30;;
34136;SDS011;20414;50.860;4.382;2022-07-15T08:22:57;0.30;;;0.30;;
34136;SDS011;20414;50.860;4.382;2022-07-15T08:25:27;0.38;;;0.38;;
34136;SDS011;20414;50.860;4.382;2022-07-15T08:27:54;0.35;;;0.28;;
34136;SDS011;20414;50.860;4.382;2022-07-15T08:30:22;0.45;;;0.40;;
34136;SDS011;20414;50.860;4.382;2022-07-15T08:32:48;0.60;;;0.30;;
34136;SDS011;20414;50.860;4.382;2022-07-15T08:35:16;0.50;;;0.30;;
34136;SDS011;20414;50.860;4.382;2022-07-15T08:37:41;0.30;;;0.30;;
34136;SDS011;20414;50.860;4.382;2022-07-15T08:40:07;1.17;;;0.35;;
34136;SDS011;20414;50.860;4.382;2022-07-15T08:42:34;1.15;;;0.30;;
34136;SDS011;20414;50.860;4.382;2022-07-15T08:45:04;1.58;;;0.50;;
34136;SDS011;20414;50.860;4.382;2022-07-15T08:47:31;0.43;;;0.35;;
34136;SDS011;20414;50.860;4.382;2022-07-15T08:49:58;0.80;;;0.40;;
34136;SDS011;20414;50.860;4.382;2022-07-15T08:52:25;0.45;;;0.30;;
34136;SDS011;20414;50.860;4.382;2022-07-15T08:54:52;0.38;;;0.30;;
34136;SDS011;20414;50.860;4.382;2022-07-15T08:57:20;0.60;;;0.45;;
34136;SDS011;20414;50.860;4.382;2022-07-15T08:59:46;0.43;;;0.30;;
34136;SDS011;20414;50.860;4.382;2022-07-15T09:02:12;0.55;;;0.35;;
34136;SDS011;20414;50.860;4.382;2022-07-15T09:16:18;0.65;;;0.40;;
34136;SDS011;20414;50.860;4.382;2022-07-15T09:18:48;0.35;;;0.30;;
34136;SDS011;20414;50.860;4.382;2022-07-15T09:21:22;0.40;;;0.30;;
34136;SDS011;20414;50.860;4.382;2022-07-15T09:23:51;0.38;;;0.30;;
34136;SDS011;20414;50.860;4.382;2022-07-15T09:28:51;1.33;;;0.40;;
34136;SDS011;20414;50.860;4.382;2022-07-15T09:31:33;0.52;;;0.32;;
34136;SDS011;20414;50.860;4.382;2022-07-15T09:34:19;0.40;;;0.30;;
34136;SDS011;20414;50.860;4.382;2022-07-15T09:36:47;1.75;;;0.40;;
34136;SDS011;20414;50.860;4.382;2022-07-15T09:39:20;0.50;;;0.30;;
34136;SDS011;20414;50.860;4.382;2022-07-15T09:41:46;0.30;;;0.30;;
34136;SDS011;20414;50.860;4.382;2022-07-15T09:44:20;0.30;;;0.30;;
34136;SDS011;20414;50.860;4.382;2022-07-15T09:46:49;0.40;;;0.40;;
34136;SDS011;20414;50.860;4.382;2022-07-15T09:54:24;0.57;;;0.30;;
34136;SDS011;20414;50.860;4.382;2022-07-15T09:56:51;0.57;;;0.30;;
34136;SDS011;20414;50.860;4.382;2022-07-15T09:59:18;0.30;;;0.25;;
34136;SDS011;20414;50.860;4.382;2022-07-15T10:01:44;0.47;;;0.47;;
34136;SDS011;20414;50.860;4.382;2022-07-15T10:04:13;0.40;;;0.40;;
34136;SDS011;20414;50.860;4.382;2022-07-15T10:06:40;0.40;;;0.38;;
34136;SDS011;20414;50.860;4.382;2022-07-15T10:09:08;0.30;;;0.30;;
34136;SDS011;20414;50.860;4.382;2022-07-15T10:11:35;0.40;;;0.30;;
34136;SDS011;20414;50.860;4.382;2022-07-15T10:28:58;0.73;;;0.40;;
34136;SDS011;20414;50.860;4.382;2022-07-15T10:31:28;0.82;;;0.30;;
34136;SDS011;20414;50.860;4.382;2022-07-15T10:39:12;0.55;;;0.40;;
34136;SDS011;20414;50.860;4.382;2022-07-15T10:44:33;0.30;;;0.30;;
34136;SDS011;20414;50.860;4.382;2022-07-15T10:49:40;0.50;;;0.20;;
34136;SDS011;20414;50.860;4.382;2022-07-15T10:52:10;0.32;;;0.32;;
34136;SDS011;20414;50.860;4.382;2022-07-15T10:54:39;0.45;;;0.38;;
34136;SDS011;20414;50.860;4.382;2022-07-15T10:57:06;0.70;;;0.30;;
34136;SDS011;20414;50.860;4.382;2022-07-15T10:59:37;0.47;;;0.30;;
34136;SDS011;20414;50.860;4.382;2022-07-15T11:04:32;0.38;;;0.30;;
34136;SDS011;20414;50.860;4.382;2022-07-15T11:15:04;0.30;;;0.30;;
34136;SDS011;20414;50.860;4.382;2022-07-15T11:17:38;0.55;;;0.30;;
34136;SDS011;20414;50.860;4.382;2022-07-15T11:20:16;0.68;;;0.35;;
34136;SDS011;20414;50.860;4.382;2022-07-15T11:22:47;0.45;;;0.30;;
34136;SDS011;20414;50.860;4.382;2022-07-15T11:27:54;0.57;;;0.30;;
34136;SDS011;20414;50.860;4.382;2022-07-15T11:30:21;0.55;;;0.40;;
34136;SDS011;20414;50.860;4.382;2022-07-15T11:32:53;0.20;;;0.20;;
34136;SDS011;20414;50.860;4.382;2022-07-15T11:35:21;0.20;;;0.20;;
34136;SDS011;20414;50.860;4.382;2022-07-15T11:37:47;0.47;;;0.30;;
34136;SDS011;20414;50.860;4.382;2022-07-15T11:40:14;0.25;;;0.20;;
34136;SDS011;20414;50.860;4.382;2022-07-15T11:43:04;0.32;;;0.30;;
34136;SDS011;20414;50.860;4.382;2022-07-15T11:45:54;0.20;;;0.20;;
34136;SDS011;20414;50.860;4.382;2022-07-15T11:48:22;0.32;;;0.30;;
34136;SDS011;20414;50.860;4.382;2022-07-15T11:50:51;0.20;;;0.20;;
34136;SDS011;20414;50.860;4.382;2022-07-15T11:53:21;0.40;;;0.22;;
34136;SDS011;20414;50.860;4.382;2022-07-15T11:55:52;0.60;;;0.30;;
34136;SDS011;20414;50.860;4.382;2022-07-15T11:58:25;0.30;;;0.30;;
34136;SDS011;20414;50.860;4.382;2022-07-15T12:00:51;0.30;;;0.30;;
34136;SDS011;20414;50.860;4.382;2022-07-15T12:03:17;0.32;;;0.30;;
34136;SDS011;20414;50.860;4.382;2022-07-15T12:05:57;0.30;;;0.30;;
34136;SDS011;20414;50.860;4.382;2022-07-15T12:08:41;0.30;;;0.30;;
34136;SDS011;20414;50.860;4.382;2022-07-15T12:11:10;0.20;;;0.20;;
34136;SDS011;20414;50.860;4.382;2022-07-15T12:16:40;0.35;;;0.20;;
34136;SDS011;20414;50.860;4.382;2022-07-15T12:19:24;0.50;;;0.30;;
34136;SDS011;20414;50.860;4.382;2022-07-15T12:21:53;0.30;;;0.30;;
34136;SDS011;20414;50.860;4.382;2022-07-15T12:24:24;0.25;;;0.15;;
34136;SDS011;20414;50.860;4.382;2022-07-15T12:27:12;0.30;;;0.30;;
34136;SDS011;20414;50.860;4.382;2022-07-15T12:29:39;0.28;;;0.28;;
34136;SDS011;20414;50.860;4.382;2022-07-15T12:32:06;0.77;;;0.30;;
34136;SDS011;20414;50.860;4.382;2022-07-15T12:35:07;0.35;;;0.30;;
34136;SDS011;20414;50.860;4.382;2022-07-15T12:37:49;0.32;;;0.30;;
34136;SDS011;20414;50.860;4.382;2022-07-15T12:40:20;0.57;;;0.40;;
34136;SDS011;20414;50.860;4.382;2022-07-15T12:42:48;0.20;;;0.20;;
34136;SDS011;20414;50.860;4.382;2022-07-15T12:45:16;0.20;;;0.20;;
34136;SDS011;20414;50.860;4.382;2022-07-15T12:50:33;0.30;;;0.30;;
34136;SDS011;20414;50.860;4.382;2022-07-15T12:52:59;0.60;;;0.28;;
34136;SDS011;20414;50.860;4.382;2022-07-15T12:55:28;0.35;;;0.20;;
34136;SDS011;20414;50.860;4.382;2022-07-15T12:58:05;0.25;;;0.20;;
34136;SDS011;20414;50.860;4.382;2022-07-15T13:00:35;0.45;;;0.30;;
34136;SDS011;20414;50.860;4.382;2022-07-15T13:05:38;0.45;;;0.40;;
34136;SDS011;20414;50.860;4.382;2022-07-15T13:08:08;0.52;;;0.30;;
34136;SDS011;20414;50.860;4.382;2022-07-15T13:10:45;0.90;;;0.30;;
34136;SDS011;20414;50.860;4.382;2022-07-15T13:13:13;0.20;;;0.20;;
34136;SDS011;20414;50.860;4.382;2022-07-15T13:15:41;0.20;;;0.20;;
34136;SDS011;20414;50.860;4.382;2022-07-15T13:18:07;0.30;;;0.30;;
34136;SDS011;20414;50.860;4.382;2022-07-15T13:20:33;0.20;;;0.20;;
34136;SDS011;20414;50.860;4.382;2022-07-15T13:22:59;0.20;;;0.20;;
34136;SDS011;20414;50.860;4.382;2022-07-15T13:25:25;0.40;;;0.30;;
34136;SDS011;20414;50.860;4.382;2022-07-15T13:27:53;0.50;;;0.30;;
34136;SDS011;20414;50.860;4.382;2022-07-15T13:30:26;0.50;;;0.30;;
34136;SDS011;20414;50.860;4.382;2022-07-15T13:32:52;0.20;;;0.20;;
34136;SDS011;20414;50.860;4.382;2022-07-15T13:35:21;0.63;;;0.40;;
34136;SDS011;20414;50.860;4.382;2022-07-15T13:37:47;0.28;;;0.28;;
34136;SDS011;20414;50.860;4.382;2022-07-15T13:40:13;0.20;;;0.20;;
34136;SDS011;20414;50.860;4.382;2022-07-15T13:42:39;0.25;;;0.20;;
34136;SDS011;20414;50.860;4.382;2022-07-15T13:45:06;0.30;;;0.30;;
34136;SDS011;20414;50.860;4.382;2022-07-15T13:47:33;0.40;;;0.30;;
34136;SDS011;20414;50.860;4.382;2022-07-15T13:49:59;0.50;;;0.30;;
34136;SDS011;20414;50.860;4.382;2022-07-15T13:52:44;0.57;;;0.30;;
34136;SDS011;20414;50.860;4.382;2022-07-15T13:55:18;0.25;;;0.25;;
34136;SDS011;20414;50.860;4.382;2022-07-15T13:57:47;0.25;;;0.25;;
34136;SDS011;20414;50.860;4.382;2022-07-15T14:00:14;0.25;;;0.25;;
34136;SDS011;20414;50.860;4.382;2022-07-15T14:02:44;0.57;;;0.30;;
34136;SDS011;20414;50.860;4.382;2022-07-15T14:05:10;0.30;;;0.30;;
34136;SDS011;20414;50.860;4.382;2022-07-15T14:07:37;0.20;;;0.20;;
34136;SDS011;20414;50.860;4.382;2022-07-15T14:10:06;0.30;;;0.30;;
34136;SDS011;20414;50.860;4.382;2022-07-15T14:12:33;0.40;;;0.30;;
34136;SDS011;20414;50.860;4.382;2022-07-15T14:15:00;0.55;;;0.35;;
34136;SDS011;20414;50.860;4.382;2022-07-15T14:17:26;0.55;;;0.30;;
34136;SDS011;20414;50.860;4.382;2022-07-15T14:20:01;0.38;;;0.30;;
34136;SDS011;20414;50.860;4.382;2022-07-15T14:22:27;0.20;;;0.20;;
34136;SDS011;20414;50.860;4.382;2022-07-15T14:24:54;0.30;;;0.30;;
34136;SDS011;20414;50.860;4.382;2022-07-15T14:27:20;0.20;;;0.20;;
34136;SDS011;20414;50.860;4.382;2022-07-15T14:29:46;0.20;;;0.20;;
34136;SDS011;20414;50.860;4.382;2022-07-15T14:32:12;0.10;;;0.10;;
34136;SDS011;20414;50.860;4.382;2022-07-15T14:34:37;0.20;;;0.20;;
34136;SDS011;20414;50.860;4.382;2022-07-15T14:37:03;0.30;;;0.20;;
34136;SDS011;20414;50.860;4.382;2022-07-15T14:39:29;0.40;;;0.25;;
34136;SDS011;20414;50.860;4.382;2022-07-15T14:41:59;0.20;;;0.20;;
34136;SDS011;20414;50.860;4.382;2022-07-15T14:44:25;0.23;;;0.20;;
34136;SDS011;20414;50.860;4.382;2022-07-15T14:46:53;0.30;;;0.30;;
34136;SDS011;20414;50.860;4.382;2022-07-15T14:49:19;0.50;;;0.40;;
34136;SDS011;20414;50.860;4.382;2022-07-15T14:51:45;0.60;;;0.30;;
34136;SDS011;20414;50.860;4.382;2022-07-15T14:54:12;0.20;;;0.20;;
34136;SDS011;20414;50.860;4.382;2022-07-15T14:56:38;0.30;;;0.20;;
34136;SDS011;20414;50.860;4.382;2022-07-15T14:59:04;0.50;;;0.40;;
34136;SDS011;20414;50.860;4.382;2022-07-15T15:01:32;0.20;;;0.20;;
34136;SDS011;20414;50.860;4.382;2022-07-15T15:03:58;0.52;;;0.30;;
34136;SDS011;20414;50.860;4.382;2022-07-15T15:06:24;0.20;;;0.20;;
34136;SDS011;20414;50.860;4.382;2022-07-15T15:08:49;0.20;;;0.20;;
34136;SDS011;20414;50.860;4.382;2022-07-15T15:11:15;0.20;;;0.20;;
34136;SDS011;20414;50.860;4.382;2022-07-15T15:13:41;0.40;;;0.20;;
34136;SDS011;20414;50.860;4.382;2022-07-15T15:16:07;0.20;;;0.20;;
34136;SDS011;20414;50.860;4.382;2022-07-15T15:18:35;0.30;;;0.30;;
34136;SDS011;20414;50.860;4.382;2022-07-15T15:21:03;0.30;;;0.30;;
34136;SDS011;20414;50.860;4.382;2022-07-15T15:23:29;0.30;;;0.20;;
34136;SDS011;20414;50.860;4.382;2022-07-15T15:25:57;0.20;;;0.20;;
34136;SDS011;20414;50.860;4.382;2022-07-15T15:28:40;0.20;;;0.20;;
34136;SDS011;20414;50.860;4.382;2022-07-15T15:31:06;0.20;;;0.20;;
34136;SDS011;20414;50.860;4.382;2022-07-15T15:33:32;0.20;;;0.20;;
34136;SDS011;20414;50.860;4.382;2022-07-15T15:35:59;0.40;;;0.30;;
34136;SDS011;20414;50.860;4.382;2022-07-15T15:38:24;0.20;;;0.20;;
34136;SDS011;20414;50.860;4.382;2022-07-15T15:40:53;0.20;;;0.20;;
34136;SDS011;20414;50.860;4.382;2022-07-15T15:43:21;0.25;;;0.22;;
34136;SDS011;20414;50.860;4.382;2022-07-15T15:45:50;0.43;;;0.20;;
34136;SDS011;20414;50.860;4.382;2022-07-15T15:48:16;0.20;;;0.20;;
34136;SDS011;20414;50.860;4.382;2022-07-15T15:50:42;0.93;;;0.20;;
34136;SDS011;20414;50.860;4.382;2022-07-15T15:53:08;0.40;;;0.30;;
34136;SDS011;20414;50.860;4.382;2022-07-15T15:55:36;0.20;;;0.20;;
34136;SDS011;20414;50.860;4.382;2022-07-15T15:58:02;0.20;;;0.20;;
34136;SDS011;20414;50.860;4.382;2022-07-15T16:00:27;0.65;;;0.20;;
34136;SDS011;20414;50.860;4.382;2022-07-15T16:05:38;0.30;;;0.30;;
34136;SDS011;20414;50.860;4.382;2022-07-15T16:08:03;0.20;;;0.20;;
34136;SDS011;20414;50.860;4.382;2022-07-15T16:10:29;0.47;;;0.30;;